Time;durP1;ratioP1;P1;durP2;ratioP2;P2;SDS_P1;SDS_P2;PMS_P1;PMS_P2;Temp;Humidity;BMP_temperature;BMP_pressure;BME280_temperature;BME280_humidity;BME280_pressure;Samples;Min_cycle;Max_cycle;Signal;HPM_P1;HPM_P2
2023/07/22 00:02:22;;;;;;;7.60;5.10;;;;;;;;;;4852619;29;20226;-67
2023/07/22 00:04:49;;;;;;;7.93;4.87;;;;;;;;;;4854148;29;20209;-66
2023/07/22 00:07:16;;;;;;;6.20;4.47;;;;;;;;;;4852891;29;20285;-67
2023/07/22 00:09:43;;;;;;;7.03;4.10;;;;;;;;;;4853265;29;20201;-66
2023/07/22 00:12:10;;;;;;;6.63;3.83;;;;;;;;;;4852845;29;20288;-66
2023/07/22 00:14:39;;;;;;;6.10;4.03;;;;;;;;;;4853200;29;20197;-67
2023/07/22 00:17:05;;;;;;;5.80;4.40;;;;;;;;;;4853906;29;20207;-66
2023/07/22 00:19:32;;;;;;;9.13;3.97;;;;;;;;;;4890661;29;20184;-67
2023/07/22 00:21:59;;;;;;;6.97;3.70;;;;;;;;;;4891987;29;20216;-67
2023/07/22 00:24:26;;;;;;;5.07;3.80;;;;;;;;;;4948805;29;20194;-67
2023/07/22 00:26:53;;;;;;;7.30;4.00;;;;;;;;;;4949137;29;20208;-67
2023/07/22 00:29:19;;;;;;;6.77;4.00;;;;;;;;;;4948930;29;20228;-67
2023/07/22 00:31:46;;;;;;;7.30;4.10;;;;;;;;;;4949395;29;20194;-67
2023/07/22 00:34:13;;;;;;;6.87;4.30;;;;;;;;;;4949060;29;20285;-66
2023/07/22 00:36:40;;;;;;;6.27;4.43;;;;;;;;;;4949204;29;20221;-66
2023/07/22 00:39:24;;;;;;;5.70;3.80;;;;;;;;;;4948692;29;20579;-67
2023/07/22 00:41:51;;;;;;;5.63;3.53;;;;;;;;;;4949648;29;20297;-67
2023/07/22 00:44:18;;;;;;;6.63;3.70;;;;;;;;;;4961386;28;20232;-67
2023/07/22 00:46:45;;;;;;;7.00;4.20;;;;;;;;;;4969348;28;20192;-67
2023/07/22 00:49:14;;;;;;;5.03;3.90;;;;;;;;;;4964122;28;20648;-67
2023/07/22 00:52:04;;;;;;;6.73;4.07;;;;;;;;;;4988063;28;20183;-67
2023/07/22 01:26:29;;;;;;;4.00;3.43;;;;;;;;;;4989281;28;20186;-67
2023/07/22 01:29:13;;;;;;;4.20;3.43;;;;;;;;;;4951999;29;20174;-67
2023/07/22 01:31:40;;;;;;;5.83;3.60;;;;;;;;;;4953466;29;20646;-66
2023/07/22 01:34:07;;;;;;;5.73;3.73;;;;;;;;;;4952793;29;20591;-66
2023/07/22 01:36:34;;;;;;;4.87;3.43;;;;;;;;;;4953054;29;20276;-66
2023/07/22 01:39:01;;;;;;;4.83;3.33;;;;;;;;;;4952829;29;20205;-67
2023/07/22 01:41:27;;;;;;;12.47;4.03;;;;;;;;;;4952749;29;20202;-67
2023/07/22 01:43:54;;;;;;;6.10;3.57;;;;;;;;;;4952521;29;20217;-66
2023/07/22 01:46:21;;;;;;;7.20;3.60;;;;;;;;;;4934815;29;20198;-66
2023/07/22 01:49:06;;;;;;;6.60;3.90;;;;;;;;;;4951167;28;20185;-67
2023/07/22 01:51:33;;;;;;;5.80;3.47;;;;;;;;;;4951605;28;20286;-66
2023/07/22 01:54:00;;;;;;;8.27;3.53;;;;;;;;;;4951046;29;20205;-67
2023/07/22 01:56:27;;;;;;;4.40;3.57;;;;;;;;;;4952654;29;20197;-66
2023/07/22 01:58:55;;;;;;;4.67;3.27;;;;;;;;;;4951764;29;20281;-66
2023/07/22 02:01:41;;;;;;;4.63;2.87;;;;;;;;;;4951304;29;20217;-67
2023/07/22 02:04:10;;;;;;;6.77;3.30;;;;;;;;;;4952241;29;20285;-67
2023/07/22 02:06:54;;;;;;;5.50;3.50;;;;;;;;;;4952510;29;20526;-66
2023/07/22 02:09:21;;;;;;;10.23;3.40;;;;;;;;;;4950976;29;20274;-67
2023/07/22 02:11:48;;;;;;;11.17;3.47;;;;;;;;;;4934826;29;20205;-66
2023/07/22 02:14:15;;;;;;;8.53;2.90;;;;;;;;;;4952203;29;20194;-67
2023/07/22 02:16:45;;;;;;;2.43;2.13;;;;;;;;;;4935165;29;20748;-66
2023/07/22 02:19:11;;;;;;;2.83;2.60;;;;;;;;;;4935043;29;20209;-66
2023/07/22 02:21:40;;;;;;;4.40;3.00;;;;;;;;;;4951822;29;20218;-66
2023/07/22 02:24:07;;;;;;;4.07;2.60;;;;;;;;;;4951738;29;20622;-66
2023/07/22 02:26:52;;;;;;;4.17;2.83;;;;;;;;;;4950695;29;20178;-66
2023/07/22 02:29:19;;;;;;;7.17;2.70;;;;;;;;;;4952274;29;20281;-66
2023/07/22 02:32:03;;;;;;;6.67;2.43;;;;;;;;;;4951451;29;20256;-66
2023/07/22 02:34:30;;;;;;;3.90;2.70;;;;;;;;;;4934244;29;20210;-67
2023/07/22 02:37:14;;;;;;;8.07;2.90;;;;;;;;;;4951819;29;20181;-66
2023/07/22 02:39:41;;;;;;;2.63;2.33;;;;;;;;;;4950676;29;21056;-66
2023/07/22 02:42:08;;;;;;;3.20;2.40;;;;;;;;;;4951247;29;20221;-66
2023/07/22 02:44:34;;;;;;;3.33;2.60;;;;;;;;;;4934409;29;20226;-66
2023/07/22 02:47:01;;;;;;;5.30;2.73;;;;;;;;;;4967262;28;20208;-66
2023/07/22 02:49:28;;;;;;;6.63;2.67;;;;;;;;;;4970645;28;20200;-66
2023/07/22 02:51:56;;;;;;;3.93;2.50;;;;;;;;;;4970318;28;20182;-67
2023/07/22 02:54:22;;;;;;;4.13;2.70;;;;;;;;;;4970358;28;20189;-66
2023/07/22 02:56:49;;;;;;;7.70;3.03;;;;;;;;;;4953257;28;20224;-66
2023/07/22 02:59:16;;;;;;;4.73;2.90;;;;;;;;;;4953497;28;20614;-66
2023/07/22 03:01:43;;;;;;;3.03;2.70;;;;;;;;;;4982761;28;20213;-66
2023/07/22 03:04:09;;;;;;;4.67;2.40;;;;;;;;;;4989915;28;20185;-66
2023/07/22 03:06:36;;;;;;;7.07;3.53;;;;;;;;;;4989890;28;20220;-66
2023/07/22 03:09:04;;;;;;;7.40;2.90;;;;;;;;;;4989463;28;20280;-66
2023/07/22 03:11:31;;;;;;;6.37;3.00;;;;;;;;;;4971578;28;20197;-66
2023/07/22 03:13:58;;;;;;;6.37;2.40;;;;;;;;;;4972787;28;20205;-66
2023/07/22 03:16:25;;;;;;;4.10;2.60;;;;;;;;;;4989621;28;20258;-66
2023/07/22 03:19:10;;;;;;;6.07;2.30;;;;;;;;;;4989861;28;20185;-66
2023/07/22 03:21:37;;;;;;;3.87;2.30;;;;;;;;;;4971783;28;20211;-66
2023/07/22 03:24:21;;;;;;;2.63;2.27;;;;;;;;;;4989403;28;20180;-66
2023/07/22 03:26:47;;;;;;;6.00;2.80;;;;;;;;;;4971959;28;20193;-66
2023/07/22 03:29:32;;;;;;;3.80;2.70;;;;;;;;;;4989505;28;20179;-66
2023/07/22 03:31:59;;;;;;;3.67;2.83;;;;;;;;;;4989665;28;20255;-66
2023/07/22 03:34:27;;;;;;;4.63;2.70;;;;;;;;;;4988947;28;20192;-66
2023/07/22 03:36:53;;;;;;;4.00;2.90;;;;;;;;;;4972188;28;20196;-66
2023/07/22 03:39:20;;;;;;;3.03;2.60;;;;;;;;;;4989120;28;20197;-66
2023/07/22 03:42:04;;;;;;;5.03;3.10;;;;;;;;;;4988604;28;20251;-64
2023/07/22 03:44:31;;;;;;;4.63;2.83;;;;;;;;;;4933433;28;20288;-66
2023/07/22 03:46:59;;;;;;;4.67;3.00;;;;;;;;;;4959845;28;20271;-66
2023/07/22 03:49:26;;;;;;;13.60;3.20;;;;;;;;;;4973192;28;20189;-66
2023/07/22 03:51:52;;;;;;;4.37;2.80;;;;;;;;;;4967410;28;20197;-65
2023/07/22 03:54:37;;;;;;;5.57;3.20;;;;;;;;;;4977596;28;20187;-65
2023/07/22 03:57:04;;;;;;;6.50;3.20;;;;;;;;;;4987382;28;20269;-65
2023/07/22 03:59:31;;;;;;;4.17;3.17;;;;;;;;;;4977924;28;20189;-66
2023/07/22 04:01:58;;;;;;;5.63;3.33;;;;;;;;;;4950955;28;20209;-66
2023/07/22 04:04:25;;;;;;;4.67;2.90;;;;;;;;;;4949867;28;20204;-66
2023/07/22 04:06:52;;;;;;;4.40;3.37;;;;;;;;;;4968468;28;20271;-66
2023/07/22 04:09:19;;;;;;;5.20;3.97;;;;;;;;;;4975389;28;20952;-67
2023/07/22 04:11:46;;;;;;;5.93;3.70;;;;;;;;;;4975059;28;20282;-67
2023/07/22 04:14:14;;;;;;;3.63;2.73;;;;;;;;;;4960462;28;20207;-65
2023/07/22 04:16:40;;;;;;;5.40;2.80;;;;;;;;;;4987637;28;20193;-64
2023/07/22 04:19:07;;;;;;;6.83;3.23;;;;;;;;;;4980703;28;20194;-65
2023/07/22 04:21:34;;;;;;;5.53;3.30;;;;;;;;;;4967631;28;20195;-65
2023/07/22 04:24:00;;;;;;;3.20;2.80;;;;;;;;;;4950325;28;20198;-66
2023/07/22 04:26:27;;;;;;;4.47;3.20;;;;;;;;;;4949992;28;20224;-65
2023/07/22 04:28:56;;;;;;;3.90;3.10;;;;;;;;;;4972163;28;20224;-66
2023/07/22 04:31:22;;;;;;;5.37;3.27;;;;;;;;;;4968626;28;21010;-67
2023/07/22 04:33:49;;;;;;;3.17;2.87;;;;;;;;;;4983256;28;20661;-66
2023/07/22 04:36:16;;;;;;;4.67;3.20;;;;;;;;;;4950764;28;20283;-66
2023/07/22 04:38:43;;;;;;;3.83;2.80;;;;;;;;;;4949448;28;20205;-65
2023/07/22 04:41:10;;;;;;;5.07;3.23;;;;;;;;;;4966809;28;20308;-66
2023/07/22 04:43:37;;;;;;;4.03;2.97;;;;;;;;;;4969432;28;20238;-65
2023/07/22 04:46:04;;;;;;;5.57;3.10;;;;;;;;;;4977194;28;20233;-65
2023/07/22 04:48:31;;;;;;;4.27;3.30;;;;;;;;;;4979026;28;20193;-66
2023/07/22 04:50:58;;;;;;;3.20;2.90;;;;;;;;;;4947863;28;20187;-65
2023/07/22 04:53:25;;;;;;;4.80;3.30;;;;;;;;;;4948989;28;20198;-66
2023/07/22 04:55:52;;;;;;;3.67;3.07;;;;;;;;;;4987023;28;20653;-65
2023/07/22 04:58:20;;;;;;;3.60;3.07;;;;;;;;;;4990743;28;20283;-66
2023/07/22 05:00:46;;;;;;;3.97;3.17;;;;;;;;;;4990481;28;20251;-66
2023/07/22 05:03:13;;;;;;;6.00;3.23;;;;;;;;;;4991171;28;20207;-66
2023/07/22 05:05:40;;;;;;;3.30;3.00;;;;;;;;;;4971150;28;20597;-66
2023/07/22 05:08:08;;;;;;;4.87;3.20;;;;;;;;;;4950737;28;20589;-65
2023/07/22 05:10:36;;;;;;;4.40;3.10;;;;;;;;;;4967780;28;20756;-65
2023/07/22 05:13:02;;;;;;;3.40;3.10;;;;;;;;;;4970623;28;20805;-65
2023/07/22 05:15:29;;;;;;;4.67;3.37;;;;;;;;;;4968506;28;20573;-66
2023/07/22 05:17:56;;;;;;;3.50;3.03;;;;;;;;;;4966347;28;20201;-66
2023/07/22 05:20:23;;;;;;;4.37;3.20;;;;;;;;;;4967168;28;21045;-66
2023/07/22 05:22:49;;;;;;;3.17;2.87;;;;;;;;;;4968744;28;20317;-66
2023/07/22 05:25:16;;;;;;;5.43;3.00;;;;;;;;;;4968855;28;20740;-66
2023/07/22 05:27:43;;;;;;;4.00;2.60;;;;;;;;;;4968474;28;20193;-66
2023/07/22 05:30:10;;;;;;;3.93;3.07;;;;;;;;;;4942077;28;20646;-67
2023/07/22 05:32:57;;;;;;;4.73;2.77;;;;;;;;;;4961380;28;20193;-67
2023/07/22 05:35:24;;;;;;;3.03;2.70;;;;;;;;;;4962579;28;20208;-67
2023/07/22 05:37:51;;;;;;;3.60;2.87;;;;;;;;;;4970562;28;20204;-67
2023/07/22 05:40:17;;;;;;;4.57;2.63;;;;;;;;;;4967528;28;20765;-69
2023/07/22 05:42:56;;;;;;;5.07;2.70;;;;;;;;;;4969461;28;20221;-66
2023/07/22 05:45:23;;;;;;;3.23;2.93;;;;;;;;;;4967657;28;20611;-66
2023/07/22 05:48:07;;;;;;;4.40;3.17;;;;;;;;;;4949599;28;20320;-65
2023/07/22 05:50:36;;;;;;;3.80;3.00;;;;;;;;;;4947591;28;20201;-66
2023/07/22 05:53:02;;;;;;;4.03;3.03;;;;;;;;;;4968511;28;20208;-65
2023/07/22 05:55:29;;;;;;;5.10;3.33;;;;;;;;;;4974566;28;20636;-66
2023/07/22 05:57:57;;;;;;;3.93;3.10;;;;;;;;;;4957176;28;20230;-65
2023/07/22 06:00:23;;;;;;;5.13;3.10;;;;;;;;;;4957860;28;20198;-66
2023/07/22 06:02:51;;;;;;;5.53;3.20;;;;;;;;;;4933611;29;20210;-65
2023/07/22 06:05:18;;;;;;;6.50;3.30;;;;;;;;;;4952272;28;20194;-65
2023/07/22 06:07:45;;;;;;;5.67;3.33;;;;;;;;;;4949840;28;20273;-65
2023/07/22 06:10:12;;;;;;;4.33;3.27;;;;;;;;;;4961973;28;20664;-65
2023/07/22 06:12:39;;;;;;;4.13;2.90;;;;;;;;;;4968995;28;20277;-65
2023/07/22 06:15:23;;;;;;;4.47;3.43;;;;;;;;;;4966140;28;20303;-66
2023/07/22 06:17:50;;;;;;;3.73;3.20;;;;;;;;;;4968712;28;20240;-65
2023/07/22 06:20:17;;;;;;;3.93;3.50;;;;;;;;;;4966961;28;20200;-67
2023/07/22 06:22:43;;;;;;;3.40;3.03;;;;;;;;;;4951272;28;20213;-66
2023/07/22 06:25:10;;;;;;;4.40;3.70;;;;;;;;;;4965882;28;20240;-67
2023/07/22 06:27:37;;;;;;;4.27;3.13;;;;;;;;;;4954402;28;20193;-66
2023/07/22 06:30:07;;;;;;;4.37;3.60;;;;;;;;;;4967027;28;20189;-66
2023/07/22 06:32:36;;;;;;;5.53;3.17;;;;;;;;;;4969230;28;20186;-66
2023/07/22 06:35:03;;;;;;;4.93;3.67;;;;;;;;;;4965816;28;20848;-66
2023/07/22 06:37:30;;;;;;;5.57;3.40;;;;;;;;;;4969079;28;20201;-66
2023/07/22 06:39:56;;;;;;;5.50;3.17;;;;;;;;;;4966619;28;20201;-66
2023/07/22 06:42:23;;;;;;;6.67;3.17;;;;;;;;;;4967410;28;20658;-66
2023/07/22 06:44:49;;;;;;;4.57;3.50;;;;;;;;;;4968007;28;20225;-66
2023/07/22 06:47:16;;;;;;;3.90;3.47;;;;;;;;;;4949953;28;20700;-66
2023/07/22 06:49:43;;;;;;;5.33;3.67;;;;;;;;;;4965643;28;20194;-66
2023/07/22 06:52:13;;;;;;;3.77;3.37;;;;;;;;;;4968260;28;20189;-66
2023/07/22 06:54:40;;;;;;;3.60;3.30;;;;;;;;;;4951028;28;20189;-66
2023/07/22 06:57:07;;;;;;;4.23;3.60;;;;;;;;;;4967891;28;20606;-67
2023/07/22 06:59:34;;;;;;;5.37;3.10;;;;;;;;;;4968367;28;20204;-67
2023/07/22 07:02:01;;;;;;;4.30;3.73;;;;;;;;;;4967487;28;20197;-67
2023/07/22 07:04:45;;;;;;;4.07;3.53;;;;;;;;;;4970499;28;20438;-67
2023/07/22 07:07:12;;;;;;;5.17;3.60;;;;;;;;;;4969465;28;20203;-67
2023/07/22 07:09:39;;;;;;;6.03;3.20;;;;;;;;;;4967841;28;20197;-67
2023/07/22 07:12:06;;;;;;;5.90;3.50;;;;;;;;;;4967607;28;20685;-67
2023/07/22 07:14:33;;;;;;;5.73;3.10;;;;;;;;;;4967906;28;20260;-67
2023/07/22 07:17:00;;;;;;;5.33;3.20;;;;;;;;;;4967965;28;20241;-67
2023/07/22 07:19:27;;;;;;;3.77;3.10;;;;;;;;;;4967264;28;20189;-67
2023/07/22 07:21:54;;;;;;;3.50;3.20;;;;;;;;;;4968013;28;20264;-67
2023/07/22 07:24:20;;;;;;;4.00;2.97;;;;;;;;;;4967618;28;20907;-67
2023/07/22 07:26:47;;;;;;;3.20;2.87;;;;;;;;;;4966808;28;20280;-67
2023/07/22 07:29:14;;;;;;;5.20;2.63;;;;;;;;;;4967526;28;20193;-67
2023/07/22 07:31:58;;;;;;;4.20;2.70;;;;;;;;;;4967893;28;20188;-67
2023/07/22 07:34:25;;;;;;;3.13;2.73;;;;;;;;;;4967319;28;20181;-67
2023/07/22 07:36:51;;;;;;;3.87;2.93;;;;;;;;;;4967521;28;20208;-67
2023/07/22 07:39:18;;;;;;;3.60;2.77;;;;;;;;;;4949878;28;20202;-67
2023/07/22 07:41:45;;;;;;;3.63;2.70;;;;;;;;;;4967184;28;20259;-67
2023/07/22 07:44:11;;;;;;;2.97;2.67;;;;;;;;;;4951261;28;20300;-66
2023/07/22 07:46:39;;;;;;;2.90;2.70;;;;;;;;;;4949174;28;20214;-66
2023/07/22 07:49:06;;;;;;;4.67;2.80;;;;;;;;;;4964579;28;20197;-66
2023/07/22 07:51:33;;;;;;;5.03;2.70;;;;;;;;;;4964867;28;20454;-66
2023/07/22 07:53:59;;;;;;;3.53;3.10;;;;;;;;;;4958027;28;20185;-67
2023/07/22 07:56:26;;;;;;;4.77;2.90;;;;;;;;;;4964886;28;20256;-68
2023/07/22 07:58:54;;;;;;;3.23;2.73;;;;;;;;;;4939203;29;20616;-68
2023/07/22 08:01:21;;;;;;;3.33;2.90;;;;;;;;;;4940499;28;20926;-66
2023/07/22 08:03:48;;;;;;;4.97;2.80;;;;;;;;;;4934264;29;20209;-67
2023/07/22 08:06:15;;;;;;;5.10;3.50;;;;;;;;;;4950088;29;20190;-67
2023/07/22 08:08:45;;;;;;;3.63;3.00;;;;;;;;;;4952894;28;20201;-66
2023/07/22 08:11:15;;;;;;;3.30;3.00;;;;;;;;;;4967296;28;20200;-67
2023/07/22 08:13:43;;;;;;;4.60;2.93;;;;;;;;;;4940924;29;20201;-67
2023/07/22 08:16:11;;;;;;;4.10;2.97;;;;;;;;;;4951402;28;20185;-67
2023/07/22 08:18:37;;;;;;;9.87;3.83;;;;;;;;;;4952203;28;20232;-61
2023/07/22 08:21:06;;;;;;;6.63;3.20;;;;;;;;;;4949750;28;20201;-68
2023/07/22 08:23:33;;;;;;;3.13;2.70;;;;;;;;;;4953636;28;20936;-68
2023/07/22 08:26:00;;;;;;;3.20;2.90;;;;;;;;;;4954692;28;20875;-66
2023/07/22 08:28:26;;;;;;;3.03;2.70;;;;;;;;;;4960094;28;20221;-67
2023/07/22 08:30:54;;;;;;;3.80;3.40;;;;;;;;;;4944284;28;20198;-67
2023/07/22 08:33:21;;;;;;;5.40;3.50;;;;;;;;;;4967711;28;20216;-66
2023/07/22 08:36:05;;;;;;;5.80;3.97;;;;;;;;;;4951679;28;20224;-68
2023/07/22 08:38:32;;;;;;;5.33;3.60;;;;;;;;;;4963087;28;20908;-67
2023/07/22 08:40:59;;;;;;;4.83;3.90;;;;;;;;;;4937063;29;20192;-66
2023/07/22 08:43:25;;;;;;;10.93;4.70;;;;;;;;;;4956532;28;20308;-67
2023/07/22 08:45:52;;;;;;;6.97;4.20;;;;;;;;;;4936820;29;20194;-66
2023/07/22 08:48:37;;;;;;;5.40;4.77;;;;;;;;;;4953781;29;20174;-68
2023/07/22 08:51:06;;;;;;;5.83;5.23;;;;;;;;;;4927940;28;20292;-69
2023/07/22 08:53:37;;;;;;;8.97;5.80;;;;;;;;;;4965266;28;20201;-71
2023/07/22 08:56:04;;;;;;;6.13;5.53;;;;;;;;;;4953405;28;20277;-68
2023/07/22 08:58:31;;;;;;;6.93;6.23;;;;;;;;;;4952423;28;20185;-69
2023/07/22 09:00:58;;;;;;;8.77;6.40;;;;;;;;;;4946858;28;20219;-69
2023/07/22 09:03:25;;;;;;;7.03;6.33;;;;;;;;;;4968532;28;20198;-68
2023/07/22 09:05:52;;;;;;;6.40;5.40;;;;;;;;;;4947513;28;20220;-68
2023/07/22 09:08:19;;;;;;;6.90;5.80;;;;;;;;;;4970647;28;20252;-67
2023/07/22 09:10:45;;;;;;;6.53;5.50;;;;;;;;;;4970861;28;20221;-66
2023/07/22 09:13:13;;;;;;;4.80;4.40;;;;;;;;;;4970795;28;20275;-67
2023/07/22 09:15:40;;;;;;;5.43;4.93;;;;;;;;;;4971668;28;20243;-67
2023/07/22 09:18:07;;;;;;;7.07;4.10;;;;;;;;;;4955700;28;20197;-67
2023/07/22 09:20:34;;;;;;;5.33;4.07;;;;;;;;;;4972720;28;20189;-67
2023/07/22 09:23:01;;;;;;;5.13;3.03;;;;;;;;;;4972141;28;20186;-67
2023/07/22 09:25:39;;;;;;;5.07;2.40;;;;;;;;;;4972906;28;20205;-67
2023/07/22 09:28:06;;;;;;;2.93;2.60;;;;;;;;;;4972647;28;20217;-67
2023/07/22 09:30:34;;;;;;;3.27;2.37;;;;;;;;;;4954997;28;20209;-67
2023/07/22 09:33:02;;;;;;;4.13;2.23;;;;;;;;;;4954597;28;20192;-67
2023/07/22 09:35:47;;;;;;;20.57;4.73;;;;;;;;;;4972434;28;20173;-67
2023/07/22 09:38:17;;;;;;;6.43;2.97;;;;;;;;;;4972438;28;20193;-67
2023/07/22 09:40:45;;;;;;;2.87;2.40;;;;;;;;;;4972350;28;20686;-67
2023/07/22 09:43:12;;;;;;;3.90;2.70;;;;;;;;;;4970688;28;20328;-67
2023/07/22 09:45:39;;;;;;;7.17;2.80;;;;;;;;;;4971576;28;20233;-67
2023/07/22 09:48:05;;;;;;;5.83;2.20;;;;;;;;;;4972156;28;20186;-67
2023/07/22 09:50:32;;;;;;;18.30;2.77;;;;;;;;;;4972648;28;20193;-67
2023/07/22 09:52:59;;;;;;;18.23;3.07;;;;;;;;;;4972077;28;20228;-67
2023/07/22 09:55:29;;;;;;;2.67;1.63;;;;;;;;;;4956851;28;20248;-67
2023/07/22 09:57:58;;;;;;;4.80;1.63;;;;;;;;;;4952096;28;20200;-66
2023/07/22 10:00:28;;;;;;;6.00;2.27;;;;;;;;;;4952523;29;20198;-66
2023/07/22 10:02:56;;;;;;;2.63;1.70;;;;;;;;;;4935144;29;20778;-66
2023/07/22 10:05:23;;;;;;;5.27;2.00;;;;;;;;;;4951535;29;20738;-66
2023/07/22 10:07:50;;;;;;;4.00;1.67;;;;;;;;;;4952295;29;20191;-66
2023/07/22 10:10:21;;;;;;;2.00;1.50;;;;;;;;;;4952072;29;20226;-66
2023/07/22 10:12:47;;;;;;;4.63;1.63;;;;;;;;;;4934733;29;20178;-66
2023/07/22 10:15:15;;;;;;;5.47;1.50;;;;;;;;;;4952464;29;20191;-67
2023/07/22 10:17:43;;;;;;;3.63;1.80;;;;;;;;;;4951763;29;20222;-66
2023/07/22 10:20:14;;;;;;;1.97;1.27;;;;;;;;;;4952322;29;20186;-66
2023/07/22 10:22:44;;;;;;;8.67;2.13;;;;;;;;;;4951833;29;20573;-66
2023/07/22 10:25:12;;;;;;;2.47;1.67;;;;;;;;;;4944085;28;20217;-67
2023/07/22 10:27:40;;;;;;;3.43;1.47;;;;;;;;;;4953719;28;20363;-66
2023/07/22 10:30:07;;;;;;;2.17;1.43;;;;;;;;;;4971155;28;20196;-66
2023/07/22 10:32:52;;;;;;;6.77;1.70;;;;;;;;;;4971006;28;20173;-66
2023/07/22 10:35:32;;;;;;;7.00;2.00;;;;;;;;;;4971186;28;20194;-66
2023/07/22 10:38:16;;;;;;;11.57;2.13;;;;;;;;;;4971042;28;20280;-66
2023/07/22 10:40:52;;;;;;;4.67;1.60;;;;;;;;;;4970739;28;20189;-66
2023/07/22 10:43:36;;;;;;;10.07;2.00;;;;;;;;;;4971109;28;20233;-66
2023/07/22 10:46:07;;;;;;;6.23;1.50;;;;;;;;;;4953669;28;20189;-66
2023/07/22 10:48:37;;;;;;;13.93;2.80;;;;;;;;;;4953865;28;20189;-66
2023/07/22 10:51:05;;;;;;;2.23;1.03;;;;;;;;;;4969855;28;20255;-66
2023/07/22 10:53:32;;;;;;;1.80;1.07;;;;;;;;;;4953645;28;20202;-66
2023/07/22 10:56:18;;;;;;;2.43;1.10;;;;;;;;;;4970431;28;20178;-65
2023/07/22 10:58:45;;;;;;;3.50;1.83;;;;;;;;;;4953756;28;20190;-66
2023/07/22 11:01:24;;;;;;;2.97;1.47;;;;;;;;;;4970404;28;20181;-66
2023/07/22 11:04:13;;;;;;;4.27;1.70;;;;;;;;;;4970528;28;20646;-66
2023/07/22 11:06:57;;;;;;;1.27;1.10;;;;;;;;;;4971047;28;20261;-66
2023/07/22 11:09:27;;;;;;;2.57;1.10;;;;;;;;;;4971588;28;20661;-66
2023/07/22 11:12:12;;;;;;;3.20;1.20;;;;;;;;;;4958351;28;20173;-66
2023/07/22 11:14:48;;;;;;;1.47;1.00;;;;;;;;;;4973078;28;20190;-66
2023/07/22 11:17:17;;;;;;;4.87;1.27;;;;;;;;;;4972790;28;20193;-66
2023/07/22 11:19:44;;;;;;;1.47;1.00;;;;;;;;;;4973782;28;20186;-66
2023/07/22 11:22:12;;;;;;;1.53;0.93;;;;;;;;;;4973341;28;20194;-66
2023/07/22 11:24:39;;;;;;;7.77;1.37;;;;;;;;;;4974262;28;20213;-67
2023/07/22 11:27:08;;;;;;;2.47;1.20;;;;;;;;;;4956319;28;20728;-64
2023/07/22 11:29:35;;;;;;;2.83;1.20;;;;;;;;;;4973993;28;20194;-66
2023/07/22 11:32:02;;;;;;;3.27;1.20;;;;;;;;;;4956244;28;20546;-66
2023/07/22 11:34:30;;;;;;;1.80;1.13;;;;;;;;;;4973319;28;20252;-66
2023/07/22 11:36:58;;;;;;;3.53;1.30;;;;;;;;;;4973438;28;20268;-66
2023/07/22 11:39:43;;;;;;;1.97;1.10;;;;;;;;;;4973302;28;20232;-66
2023/07/22 11:42:10;;;;;;;3.27;1.30;;;;;;;;;;4972832;28;20214;-66
2023/07/22 11:44:54;;;;;;;2.03;0.90;;;;;;;;;;4973116;28;20228;-65
2023/07/22 11:47:28;;;;;;;3.23;1.10;;;;;;;;;;4954902;28;20216;-65
2023/07/22 11:49:54;;;;;;;2.23;1.10;;;;;;;;;;4956094;28;20240;-65
2023/07/22 11:52:21;;;;;;;1.77;1.10;;;;;;;;;;4972479;28;20197;-65
2023/07/22 11:54:48;;;;;;;2.93;1.37;;;;;;;;;;4949692;28;20202;-65
2023/07/22 11:57:16;;;;;;;2.27;1.20;;;;;;;;;;4952978;29;20249;-65
2023/07/22 11:59:44;;;;;;;1.40;0.97;;;;;;;;;;4953381;29;20377;-65
2023/07/22 12:02:23;;;;;;;2.23;1.23;;;;;;;;;;4953064;29;20594;-65
2023/07/22 12:04:53;;;;;;;2.90;1.13;;;;;;;;;;4953577;29;20221;-65
2023/07/22 12:07:21;;;;;;;2.57;1.20;;;;;;;;;;4953197;28;20194;-65
2023/07/22 12:09:48;;;;;;;2.03;1.40;;;;;;;;;;4953429;29;20614;-65
2023/07/22 12:12:49;;;;;;;2.47;1.10;;;;;;;;;;4952601;29;20197;-65
2023/07/22 12:15:17;;;;;;;5.40;1.47;;;;;;;;;;4953883;29;20197;-65
2023/07/22 12:17:44;;;;;;;4.63;2.10;;;;;;;;;;4952800;29;20256;-65
2023/07/22 12:20:11;;;;;;;1.90;1.70;;;;;;;;;;4953410;29;20188;-64
2023/07/22 12:22:38;;;;;;;2.77;2.07;;;;;;;;;;4953830;29;20208;-64
2023/07/22 12:25:23;;;;;;;2.67;2.13;;;;;;;;;;4953604;29;20220;-65
2023/07/22 12:27:49;;;;;;;3.33;2.50;;;;;;;;;;4953805;29;20221;-65
2023/07/22 12:30:16;;;;;;;4.20;2.40;;;;;;;;;;4953342;29;20201;-64
2023/07/22 12:32:46;;;;;;;5.07;2.70;;;;;;;;;;4953673;29;20190;-65
2023/07/22 12:35:13;;;;;;;2.77;2.13;;;;;;;;;;4953541;29;20202;-65
2023/07/22 12:37:40;;;;;;;2.93;2.60;;;;;;;;;;4953610;29;20662;-64
2023/07/22 12:40:08;;;;;;;3.33;2.33;;;;;;;;;;4963773;28;20612;-66
2023/07/22 12:42:35;;;;;;;4.37;3.20;;;;;;;;;;4970992;28;20216;-65
2023/07/22 12:45:03;;;;;;;4.07;2.83;;;;;;;;;;4971042;28;20236;-65
2023/07/22 12:47:29;;;;;;;2.90;2.30;;;;;;;;;;4971018;28;20228;-65
2023/07/22 12:49:57;;;;;;;4.33;2.30;;;;;;;;;;4953365;28;20244;-65
2023/07/22 12:52:25;;;;;;;3.10;2.37;;;;;;;;;;4971124;28;20220;-65
2023/07/22 12:54:52;;;;;;;5.13;2.10;;;;;;;;;;4970840;28;20194;-64
2023/07/22 12:57:21;;;;;;;2.77;2.30;;;;;;;;;;4970879;28;20260;-65
2023/07/22 13:00:09;;;;;;;2.73;2.23;;;;;;;;;;4969121;28;20704;-65
2023/07/22 13:02:37;;;;;;;2.70;2.17;;;;;;;;;;4971217;28;20736;-65
2023/07/22 13:05:09;;;;;;;3.70;2.40;;;;;;;;;;4953927;28;20577;-66
2023/07/22 13:07:36;;;;;;;3.37;1.93;;;;;;;;;;4970886;28;20205;-65
2023/07/22 13:10:06;;;;;;;3.90;2.20;;;;;;;;;;4970584;28;20649;-65
2023/07/22 13:12:33;;;;;;;3.33;2.17;;;;;;;;;;4970826;28;20201;-65
2023/07/22 13:15:00;;;;;;;3.77;2.03;;;;;;;;;;4954711;28;20196;-65
2023/07/22 13:17:27;;;;;;;3.63;1.97;;;;;;;;;;4955771;28;20197;-65
2023/07/22 13:19:54;;;;;;;2.87;2.00;;;;;;;;;;4975597;28;20644;-65
2023/07/22 13:22:20;;;;;;;3.47;2.30;;;;;;;;;;4976196;28;20196;-65
2023/07/22 13:24:47;;;;;;;2.80;2.10;;;;;;;;;;4976118;28;20220;-65
2023/07/22 13:27:14;;;;;;;2.23;1.80;;;;;;;;;;4975918;28;20194;-65
2023/07/22 13:29:41;;;;;;;2.90;1.83;;;;;;;;;;4975801;28;20209;-65
2023/07/22 13:32:08;;;;;;;3.37;2.20;;;;;;;;;;4971885;28;20189;-65
2023/07/22 13:34:35;;;;;;;3.93;1.90;;;;;;;;;;4956198;28;20301;-65
2023/07/22 13:37:02;;;;;;;3.23;2.10;;;;;;;;;;4956722;29;20218;-65
2023/07/22 13:39:29;;;;;;;2.67;2.00;;;;;;;;;;4956261;29;20198;-65
2023/07/22 13:41:56;;;;;;;7.50;2.73;;;;;;;;;;4956644;29;20198;-65
2023/07/22 13:44:23;;;;;;;5.13;2.10;;;;;;;;;;4956138;29;20654;-65
2023/07/22 13:46:49;;;;;;;3.33;1.53;;;;;;;;;;4956503;29;20257;-65
2023/07/22 13:49:34;;;;;;;3.73;1.40;;;;;;;;;;4956122;29;20191;-65
2023/07/22 13:52:00;;;;;;;1.50;1.30;;;;;;;;;;4956471;29;20194;-65
2023/07/22 13:54:28;;;;;;;2.50;1.50;;;;;;;;;;4956422;29;20645;-65
2023/07/22 14:16:23;;;;;;;2.13;1.50;;;;;;;;;;4955658;29;20229;-65
2023/07/22 14:18:51;;;;;;;3.40;1.83;;;;;;;;;;4955995;29;20190;-64
2023/07/22 14:21:18;;;;;;;4.80;1.77;;;;;;;;;;4955655;29;20194;-65
2023/07/22 14:23:45;;;;;;;5.83;1.70;;;;;;;;;;4956120;29;20225;-64
2023/07/22 14:26:12;;;;;;;3.70;1.67;;;;;;;;;;4955940;29;20304;-65
2023/07/22 14:28:38;;;;;;;2.40;1.97;;;;;;;;;;4955847;28;20198;-65
2023/07/22 14:31:05;;;;;;;3.40;1.70;;;;;;;;;;4955590;29;20198;-65
2023/07/22 14:33:32;;;;;;;2.33;1.90;;;;;;;;;;4938857;29;20198;-64
2023/07/22 14:36:13;;;;;;;3.23;1.60;;;;;;;;;;4951322;29;20201;-64
2023/07/22 14:38:57;;;;;;;1.87;1.20;;;;;;;;;;4954530;29;20174;-64
2023/07/22 14:41:24;;;;;;;4.23;1.90;;;;;;;;;;4955728;29;20200;-65
2023/07/22 14:43:51;;;;;;;2.23;1.40;;;;;;;;;;4955414;29;20226;-64
2023/07/22 14:46:18;;;;;;;2.93;1.40;;;;;;;;;;4972452;28;20223;-64
2023/07/22 14:48:45;;;;;;;2.23;1.30;;;;;;;;;;4973712;28;20201;-65
2023/07/22 14:51:29;;;;;;;59.93;4.63;;;;;;;;;;4971460;28;20185;-64
2023/07/22 14:53:56;;;;;;;1.53;1.10;;;;;;;;;;4955513;28;20596;-65
2023/07/22 14:56:40;;;;;;;2.97;1.40;;;;;;;;;;4972763;28;20188;-65
2023/07/22 14:59:07;;;;;;;2.00;1.00;;;;;;;;;;4953610;28;20196;-65
2023/07/22 15:01:51;;;;;;;1.60;1.27;;;;;;;;;;4970928;28;20184;-65
2023/07/22 15:04:19;;;;;;;1.63;1.30;;;;;;;;;;4972552;28;20577;-65
2023/07/22 15:06:46;;;;;;;2.37;1.47;;;;;;;;;;4973059;28;20538;-64
2023/07/22 15:09:12;;;;;;;3.53;1.20;;;;;;;;;;4972883;28;20585;-64
2023/07/22 15:11:39;;;;;;;2.60;1.37;;;;;;;;;;4953698;28;20711;-65
2023/07/22 15:14:06;;;;;;;2.53;1.20;;;;;;;;;;4972128;28;20661;-64
2023/07/22 15:16:32;;;;;;;3.03;1.53;;;;;;;;;;4972428;28;20729;-65
2023/07/22 15:18:59;;;;;;;3.13;1.20;;;;;;;;;;4955236;28;20653;-65
2023/07/22 15:21:43;;;;;;;2.57;0.97;;;;;;;;;;4972358;28;20170;-65
2023/07/22 15:24:10;;;;;;;1.70;1.00;;;;;;;;;;4970191;28;20252;-64
2023/07/22 15:26:54;;;;;;;2.83;0.90;;;;;;;;;;4970322;28;20172;-65
2023/07/22 15:29:21;;;;;;;2.60;1.00;;;;;;;;;;4972341;28;20249;-64
2023/07/22 15:32:08;;;;;;;3.03;1.10;;;;;;;;;;4969692;28;20192;-64
2023/07/22 15:34:35;;;;;;;3.53;1.20;;;;;;;;;;4972240;28;20620;-64
2023/07/22 15:37:19;;;;;;;1.97;0.90;;;;;;;;;;4972084;28;20177;-64
2023/07/22 15:39:46;;;;;;;0.93;0.80;;;;;;;;;;4967861;28;20198;-67
2023/07/22 15:42:13;;;;;;;1.10;1.00;;;;;;;;;;4947500;28;20232;-66
2023/07/22 15:44:39;;;;;;;2.93;0.93;;;;;;;;;;4968506;28;20272;-66
2023/07/22 15:47:06;;;;;;;1.03;0.90;;;;;;;;;;4969588;28;20194;-68
2023/07/22 15:49:50;;;;;;;1.83;0.90;;;;;;;;;;4964091;28;20201;-66